sensor_id;sensor_type;location;lat;lon;timestamp;P1;durP1;ratioP1;P2;durP2;ratioP2
2029;SDS011;1020;48.854;8.830;2022-07-25T00:01:49;10.63;;;9.73;;
2029;SDS011;1020;48.854;8.830;2022-07-25T00:04:17;11.40;;;10.50;;
2029;SDS011;1020;48.854;8.830;2022-07-25T00:06:43;12.13;;;11.00;;
2029;SDS011;1020;48.854;8.830;2022-07-25T00:09:10;10.63;;;9.83;;
2029;SDS011;1020;48.854;8.830;2022-07-25T00:11:38;12.40;;;11.30;;
2029;SDS011;1020;48.854;8.830;2022-07-25T00:14:05;11.53;;;10.73;;
2029;SDS011;1020;48.854;8.830;2022-07-25T00:16:32;11.70;;;10.70;;
2029;SDS011;1020;48.854;8.830;2022-07-25T00:18:59;12.20;;;11.30;;
2029;SDS011;1020;48.854;8.830;2022-07-25T00:21:26;11.20;;;10.30;;
2029;SDS011;1020;48.854;8.830;2022-07-25T00:23:53;11.17;;;10.37;;
2029;SDS011;1020;48.854;8.830;2022-07-25T00:26:19;11.20;;;10.30;;
2029;SDS011;1020;48.854;8.830;2022-07-25T00:28:47;10.33;;;9.50;;
2029;SDS011;1020;48.854;8.830;2022-07-25T00:31:14;10.83;;;10.03;;
2029;SDS011;1020;48.854;8.830;2022-07-25T00:33:41;11.07;;;10.17;;
2029;SDS011;1020;48.854;8.830;2022-07-25T00:36:08;11.53;;;10.63;;
2029;SDS011;1020;48.854;8.830;2022-07-25T00:38:35;11.40;;;10.50;;
2029;SDS011;1020;48.854;8.830;2022-07-25T00:41:02;11.03;;;10.23;;
2029;SDS011;1020;48.854;8.830;2022-07-25T00:43:29;12.10;;;11.03;;
2029;SDS011;1020;48.854;8.830;2022-07-25T00:45:58;10.57;;;9.77;;
2029;SDS011;1020;48.854;8.830;2022-07-25T00:48:25;11.47;;;10.57;;
2029;SDS011;1020;48.854;8.830;2022-07-25T00:50:52;11.17;;;10.37;;
2029;SDS011;1020;48.854;8.830;2022-07-25T00:53:19;10.93;;;10.00;;
2029;SDS011;1020;48.854;8.830;2022-07-25T00:55:46;11.17;;;10.37;;
2029;SDS011;1020;48.854;8.830;2022-07-25T00:58:13;10.97;;;9.87;;
2029;SDS011;1020;48.854;8.830;2022-07-25T01:00:40;11.20;;;10.30;;
2029;SDS011;1020;48.854;8.830;2022-07-25T01:03:08;12.70;;;10.93;;
2029;SDS011;1020;48.854;8.830;2022-07-25T01:05:35;11.53;;;10.43;;
2029;SDS011;1020;48.854;8.830;2022-07-25T01:08:02;11.37;;;10.13;;
2029;SDS011;1020;48.854;8.830;2022-07-25T01:10:29;12.10;;;11.07;;
2029;SDS011;1020;48.854;8.830;2022-07-25T01:12:57;10.90;;;9.97;;
2029;SDS011;1020;48.854;8.830;2022-07-25T01:15:24;11.03;;;10.23;;
2029;SDS011;1020;48.854;8.830;2022-07-25T01:17:51;10.87;;;10.07;;
2029;SDS011;1020;48.854;8.830;2022-07-25T01:20:19;11.10;;;10.20;;
2029;SDS011;1020;48.854;8.830;2022-07-25T01:22:47;11.30;;;10.50;;
2029;SDS011;1020;48.854;8.830;2022-07-25T01:25:14;11.40;;;10.60;;
2029;SDS011;1020;48.854;8.830;2022-07-25T01:27:41;10.80;;;10.00;;
2029;SDS011;1020;48.854;8.830;2022-07-25T01:30:09;11.40;;;10.50;;
2029;SDS011;1020;48.854;8.830;2022-07-25T01:32:39;11.20;;;10.33;;
2029;SDS011;1020;48.854;8.830;2022-07-25T01:35:06;11.60;;;10.80;;
2029;SDS011;1020;48.854;8.830;2022-07-25T01:37:35;12.23;;;11.20;;
2029;SDS011;1020;48.854;8.830;2022-07-25T01:40:02;11.20;;;10.30;;
2029;SDS011;1020;48.854;8.830;2022-07-25T01:42:30;10.53;;;9.83;;
2029;SDS011;1020;48.854;8.830;2022-07-25T01:44:57;11.33;;;10.57;;
2029;SDS011;1020;48.854;8.830;2022-07-25T01:47:24;12.00;;;11.00;;
2029;SDS011;1020;48.854;8.830;2022-07-25T01:49:51;11.47;;;10.40;;
2029;SDS011;1020;48.854;8.830;2022-07-25T01:52:18;11.43;;;10.50;;
2029;SDS011;1020;48.854;8.830;2022-07-25T01:54:46;11.33;;;10.33;;
2029;SDS011;1020;48.854;8.830;2022-07-25T01:57:12;11.10;;;10.27;;
2029;SDS011;1020;48.854;8.830;2022-07-25T01:59:39;12.43;;;11.23;;
2029;SDS011;1020;48.854;8.830;2022-07-25T02:02:06;11.83;;;10.83;;
2029;SDS011;1020;48.854;8.830;2022-07-25T02:04:34;10.40;;;9.70;;
2029;SDS011;1020;48.854;8.830;2022-07-25T02:07:01;11.03;;;10.23;;
2029;SDS011;1020;48.854;8.830;2022-07-25T02:09:29;11.50;;;10.60;;
2029;SDS011;1020;48.854;8.830;2022-07-25T02:11:57;11.60;;;10.70;;
2029;SDS011;1020;48.854;8.830;2022-07-25T02:14:23;12.80;;;11.83;;
2029;SDS011;1020;48.854;8.830;2022-07-25T02:16:50;10.63;;;9.73;;
2029;SDS011;1020;48.854;8.830;2022-07-25T02:19:17;11.30;;;10.50;;
2029;SDS011;1020;48.854;8.830;2022-07-25T02:21:44;11.80;;;10.87;;
2029;SDS011;1020;48.854;8.830;2022-07-25T02:24:11;12.47;;;11.40;;
2029;SDS011;1020;48.854;8.830;2022-07-25T02:26:38;10.93;;;10.23;;
2029;SDS011;1020;48.854;8.830;2022-07-25T02:29:06;11.67;;;10.80;;
2029;SDS011;1020;48.854;8.830;2022-07-25T02:31:32;11.27;;;10.37;;
2029;SDS011;1020;48.854;8.830;2022-07-25T02:33:59;12.00;;;10.93;;
2029;SDS011;1020;48.854;8.830;2022-07-25T02:36:26;10.80;;;9.87;;
2029;SDS011;1020;48.854;8.830;2022-07-25T02:38:52;11.40;;;10.50;;
2029;SDS011;1020;48.854;8.830;2022-07-25T02:41:19;11.47;;;10.47;;
2029;SDS011;1020;48.854;8.830;2022-07-25T02:43:46;11.43;;;10.53;;
2029;SDS011;1020;48.854;8.830;2022-07-25T02:46:14;11.37;;;10.57;;
2029;SDS011;1020;48.854;8.830;2022-07-25T02:48:41;11.43;;;10.53;;
2029;SDS011;1020;48.854;8.830;2022-07-25T02:51:08;11.73;;;10.83;;
2029;SDS011;1020;48.854;8.830;2022-07-25T02:53:34;11.33;;;10.40;;
2029;SDS011;1020;48.854;8.830;2022-07-25T02:56:01;13.10;;;12.07;;
2029;SDS011;1020;48.854;8.830;2022-07-25T02:58:28;11.67;;;10.57;;
2029;SDS011;1020;48.854;8.830;2022-07-25T03:00:55;12.67;;;11.77;;
2029;SDS011;1020;48.854;8.830;2022-07-25T03:03:23;12.23;;;11.33;;
2029;SDS011;1020;48.854;8.830;2022-07-25T03:05:50;10.90;;;10.10;;
2029;SDS011;1020;48.854;8.830;2022-07-25T03:08:17;12.10;;;11.30;;
2029;SDS011;1020;48.854;8.830;2022-07-25T03:10:44;11.17;;;10.40;;
2029;SDS011;1020;48.854;8.830;2022-07-25T03:13:10;11.37;;;10.47;;
2029;SDS011;1020;48.854;8.830;2022-07-25T03:15:37;12.60;;;11.67;;
2029;SDS011;1020;48.854;8.830;2022-07-25T03:18:04;11.50;;;10.70;;
2029;SDS011;1020;48.854;8.830;2022-07-25T03:20:32;13.50;;;12.40;;
2029;SDS011;1020;48.854;8.830;2022-07-25T03:22:59;12.40;;;11.50;;
2029;SDS011;1020;48.854;8.830;2022-07-25T03:25:25;12.30;;;11.40;;
2029;SDS011;1020;48.854;8.830;2022-07-25T03:27:52;12.30;;;11.40;;
2029;SDS011;1020;48.854;8.830;2022-07-25T03:30:20;11.87;;;11.00;;
2029;SDS011;1020;48.854;8.830;2022-07-25T03:32:47;11.90;;;10.90;;
2029;SDS011;1020;48.854;8.830;2022-07-25T03:35:14;12.40;;;11.40;;
2029;SDS011;1020;48.854;8.830;2022-07-25T03:37:42;11.80;;;11.00;;
2029;SDS011;1020;48.854;8.830;2022-07-25T03:40:10;12.37;;;11.27;;
2029;SDS011;1020;48.854;8.830;2022-07-25T03:42:38;12.20;;;11.00;;
2029;SDS011;1020;48.854;8.830;2022-07-25T03:45:05;11.83;;;10.93;;
2029;SDS011;1020;48.854;8.830;2022-07-25T03:47:33;12.20;;;11.30;;
2029;SDS011;1020;48.854;8.830;2022-07-25T03:50:00;11.87;;;10.97;;
2029;SDS011;1020;48.854;8.830;2022-07-25T03:52:26;12.30;;;11.40;;
2029;SDS011;1020;48.854;8.830;2022-07-25T03:54:54;11.00;;;10.20;;
2029;SDS011;1020;48.854;8.830;2022-07-25T03:57:21;11.33;;;10.53;;
2029;SDS011;1020;48.854;8.830;2022-07-25T03:59:48;12.20;;;11.20;;
2029;SDS011;1020;48.854;8.830;2022-07-25T04:02:14;12.80;;;11.53;;
2029;SDS011;1020;48.854;8.830;2022-07-25T04:04:41;11.50;;;10.43;;
2029;SDS011;1020;48.854;8.830;2022-07-25T04:07:08;10.57;;;9.87;;
2029;SDS011;1020;48.854;8.830;2022-07-25T04:09:35;10.77;;;9.87;;
2029;SDS011;1020;48.854;8.830;2022-07-25T04:12:03;11.47;;;10.47;;
2029;SDS011;1020;48.854;8.830;2022-07-25T04:14:30;10.77;;;9.97;;
2029;SDS011;1020;48.854;8.830;2022-07-25T04:16:58;11.43;;;10.53;;
2029;SDS011;1020;48.854;8.830;2022-07-25T04:19:25;10.77;;;9.97;;
2029;SDS011;1020;48.854;8.830;2022-07-25T04:21:51;10.80;;;9.90;;
2029;SDS011;1020;48.854;8.830;2022-07-25T04:24:18;10.57;;;9.87;;
2029;SDS011;1020;48.854;8.830;2022-07-25T04:26:45;11.13;;;10.33;;
2029;SDS011;1020;48.854;8.830;2022-07-25T04:29:13;12.13;;;11.07;;
2029;SDS011;1020;48.854;8.830;2022-07-25T04:31:40;11.00;;;10.10;;
2029;SDS011;1020;48.854;8.830;2022-07-25T04:34:06;11.30;;;10.47;;
2029;SDS011;1020;48.854;8.830;2022-07-25T04:36:33;11.23;;;10.43;;
2029;SDS011;1020;48.854;8.830;2022-07-25T04:39:00;10.43;;;9.63;;
2029;SDS011;1020;48.854;8.830;2022-07-25T04:41:26;11.07;;;10.20;;
2029;SDS011;1020;48.854;8.830;2022-07-25T04:43:53;10.37;;;9.67;;
2029;SDS011;1020;48.854;8.830;2022-07-25T04:46:21;11.00;;;10.20;;
2029;SDS011;1020;48.854;8.830;2022-07-25T04:48:48;10.70;;;9.80;;
2029;SDS011;1020;48.854;8.830;2022-07-25T04:51:15;10.57;;;9.77;;
2029;SDS011;1020;48.854;8.830;2022-07-25T04:53:42;10.70;;;9.90;;
2029;SDS011;1020;48.854;8.830;2022-07-25T04:56:10;11.30;;;10.50;;
2029;SDS011;1020;48.854;8.830;2022-07-25T04:58:37;10.13;;;9.43;;
2029;SDS011;1020;48.854;8.830;2022-07-25T05:01:04;10.20;;;9.43;;
2029;SDS011;1020;48.854;8.830;2022-07-25T05:03:32;11.33;;;10.53;;
2029;SDS011;1020;48.854;8.830;2022-07-25T05:05:59;10.47;;;9.70;;
2029;SDS011;1020;48.854;8.830;2022-07-25T05:08:26;10.17;;;9.47;;
2029;SDS011;1020;48.854;8.830;2022-07-25T05:10:53;10.90;;;9.97;;
2029;SDS011;1020;48.854;8.830;2022-07-25T05:13:20;9.50;;;8.80;;
2029;SDS011;1020;48.854;8.830;2022-07-25T05:15:47;9.60;;;9.00;;
2029;SDS011;1020;48.854;8.830;2022-07-25T05:18:13;8.93;;;8.33;;
2029;SDS011;1020;48.854;8.830;2022-07-25T05:20:41;9.43;;;8.63;;
2029;SDS011;1020;48.854;8.830;2022-07-25T05:23:08;9.10;;;8.40;;
2029;SDS011;1020;48.854;8.830;2022-07-25T05:25:35;9.17;;;8.47;;
2029;SDS011;1020;48.854;8.830;2022-07-25T05:28:02;9.20;;;8.60;;
2029;SDS011;1020;48.854;8.830;2022-07-25T05:30:29;10.13;;;9.23;;
2029;SDS011;1020;48.854;8.830;2022-07-25T05:32:55;9.67;;;8.87;;
2029;SDS011;1020;48.854;8.830;2022-07-25T05:35:22;10.60;;;9.80;;
2029;SDS011;1020;48.854;8.830;2022-07-25T05:37:50;10.73;;;9.93;;
2029;SDS011;1020;48.854;8.830;2022-07-25T05:40:17;10.07;;;9.13;;
2029;SDS011;1020;48.854;8.830;2022-07-25T05:42:44;10.27;;;8.70;;
2029;SDS011;1020;48.854;8.830;2022-07-25T05:45:10;9.60;;;8.73;;
2029;SDS011;1020;48.854;8.830;2022-07-25T05:47:37;9.87;;;9.07;;
2029;SDS011;1020;48.854;8.830;2022-07-25T05:50:05;10.70;;;9.80;;
2029;SDS011;1020;48.854;8.830;2022-07-25T05:52:32;9.00;;;8.33;;
2029;SDS011;1020;48.854;8.830;2022-07-25T05:55:00;9.13;;;8.43;;
2029;SDS011;1020;48.854;8.830;2022-07-25T05:57:27;9.47;;;8.87;;
2029;SDS011;1020;48.854;8.830;2022-07-25T05:59:54;9.87;;;9.17;;
2029;SDS011;1020;48.854;8.830;2022-07-25T06:02:21;9.50;;;8.90;;
2029;SDS011;1020;48.854;8.830;2022-07-25T06:04:48;9.50;;;8.63;;
2029;SDS011;1020;48.854;8.830;2022-07-25T06:07:15;8.97;;;8.37;;
2029;SDS011;1020;48.854;8.830;2022-07-25T06:09:42;8.97;;;8.27;;
2029;SDS011;1020;48.854;8.830;2022-07-25T06:12:10;10.33;;;9.60;;
2029;SDS011;1020;48.854;8.830;2022-07-25T06:14:38;9.47;;;8.73;;
2029;SDS011;1020;48.854;8.830;2022-07-25T06:17:04;9.60;;;8.90;;
2029;SDS011;1020;48.854;8.830;2022-07-25T06:19:31;9.33;;;8.63;;
2029;SDS011;1020;48.854;8.830;2022-07-25T06:21:58;9.83;;;9.03;;
2029;SDS011;1020;48.854;8.830;2022-07-25T06:24:24;9.73;;;9.13;;
2029;SDS011;1020;48.854;8.830;2022-07-25T06:26:51;9.67;;;8.77;;
2029;SDS011;1020;48.854;8.830;2022-07-25T06:29:19;10.20;;;9.40;;
2029;SDS011;1020;48.854;8.830;2022-07-25T06:31:46;9.80;;;9.10;;
2029;SDS011;1020;48.854;8.830;2022-07-25T06:34:13;9.93;;;9.13;;
2029;SDS011;1020;48.854;8.830;2022-07-25T06:36:40;9.93;;;9.23;;
2029;SDS011;1020;48.854;8.830;2022-07-25T06:39:07;10.30;;;9.60;;
2029;SDS011;1020;48.854;8.830;2022-07-25T06:41:33;9.83;;;9.20;;
2029;SDS011;1020;48.854;8.830;2022-07-25T06:44:01;9.37;;;8.70;;
2029;SDS011;1020;48.854;8.830;2022-07-25T06:46:29;9.70;;;9.00;;
2029;SDS011;1020;48.854;8.830;2022-07-25T06:48:56;9.20;;;8.60;;
2029;SDS011;1020;48.854;8.830;2022-07-25T06:51:24;10.33;;;9.63;;
2029;SDS011;1020;48.854;8.830;2022-07-25T06:53:51;10.53;;;9.73;;
2029;SDS011;1020;48.854;8.830;2022-07-25T06:56:17;10.03;;;9.23;;
2029;SDS011;1020;48.854;8.830;2022-07-25T06:58:44;10.93;;;10.03;;
2029;SDS011;1020;48.854;8.830;2022-07-25T07:01:11;10.47;;;9.67;;
2029;SDS011;1020;48.854;8.830;2022-07-25T07:03:40;9.93;;;9.23;;
2029;SDS011;1020;48.854;8.830;2022-07-25T07:06:07;10.33;;;9.67;;
2029;SDS011;1020;48.854;8.830;2022-07-25T07:08:34;10.03;;;9.30;;
2029;SDS011;1020;48.854;8.830;2022-07-25T07:11:01;11.20;;;9.23;;
2029;SDS011;1020;48.854;8.830;2022-07-25T07:13:29;9.67;;;9.07;;
2029;SDS011;1020;48.854;8.830;2022-07-25T07:15:56;10.13;;;9.33;;
2029;SDS011;1020;48.854;8.830;2022-07-25T07:18:23;10.00;;;9.40;;
2029;SDS011;1020;48.854;8.830;2022-07-25T07:20:51;9.43;;;8.73;;
2029;SDS011;1020;48.854;8.830;2022-07-25T07:23:18;10.00;;;9.30;;
2029;SDS011;1020;48.854;8.830;2022-07-25T07:25:45;9.57;;;8.90;;
2029;SDS011;1020;48.854;8.830;2022-07-25T07:28:12;8.90;;;8.27;;
2029;SDS011;1020;48.854;8.830;2022-07-25T07:30:39;9.33;;;8.63;;
2029;SDS011;1020;48.854;8.830;2022-07-25T07:33:06;8.47;;;7.87;;
2029;SDS011;1020;48.854;8.830;2022-07-25T07:35:33;8.53;;;8.03;;
2029;SDS011;1020;48.854;8.830;2022-07-25T07:38:01;8.30;;;7.70;;
2029;SDS011;1020;48.854;8.830;2022-07-25T07:40:28;8.93;;;8.33;;
2029;SDS011;1020;48.854;8.830;2022-07-25T07:42:55;8.37;;;7.87;;
2029;SDS011;1020;48.854;8.830;2022-07-25T07:45:25;7.53;;;7.03;;
2029;SDS011;1020;48.854;8.830;2022-07-25T07:47:52;7.83;;;7.33;;
2029;SDS011;1020;48.854;8.830;2022-07-25T07:50:22;8.80;;;8.03;;
2029;SDS011;1020;48.854;8.830;2022-07-25T07:52:51;8.93;;;8.33;;
2029;SDS011;1020;48.854;8.830;2022-07-25T07:55:20;7.40;;;6.93;;
2029;SDS011;1020;48.854;8.830;2022-07-25T07:58:05;8.23;;;7.73;;
2029;SDS011;1020;48.854;8.830;2022-07-25T08:00:32;6.90;;;6.40;;
2029;SDS011;1020;48.854;8.830;2022-07-25T08:03:00;7.80;;;7.30;;
2029;SDS011;1020;48.854;8.830;2022-07-25T08:05:28;7.03;;;6.63;;
2029;SDS011;1020;48.854;8.830;2022-07-25T08:07:57;8.63;;;7.93;;
2029;SDS011;1020;48.854;8.830;2022-07-25T08:10:26;7.77;;;7.37;;
2029;SDS011;1020;48.854;8.830;2022-07-25T08:12:54;7.27;;;6.87;;
2029;SDS011;1020;48.854;8.830;2022-07-25T08:15:21;6.93;;;6.53;;
2029;SDS011;1020;48.854;8.830;2022-07-25T08:17:48;7.07;;;6.68;;
2029;SDS011;1020;48.854;8.830;2022-07-25T08:20:17;6.95;;;6.45;;
2029;SDS011;1020;48.854;8.830;2022-07-25T08:22:45;6.15;;;5.75;;
2029;SDS011;1020;48.854;8.830;2022-07-25T08:25:13;6.13;;;5.82;;
2029;SDS011;1020;48.854;8.830;2022-07-25T08:27:43;6.10;;;5.80;;
2029;SDS011;1020;48.854;8.830;2022-07-25T08:30:10;6.68;;;6.28;;
2029;SDS011;1020;48.854;8.830;2022-07-25T08:32:45;7.13;;;6.57;;
2029;SDS011;1020;48.854;8.830;2022-07-25T08:35:12;6.88;;;6.57;;
2029;SDS011;1020;48.854;8.830;2022-07-25T08:37:40;6.90;;;6.40;;
2029;SDS011;1020;48.854;8.830;2022-07-25T08:40:07;7.30;;;6.83;;
2029;SDS011;1020;48.854;8.830;2022-07-25T08:42:36;7.97;;;7.27;;
2029;SDS011;1020;48.854;8.830;2022-07-25T08:45:05;7.17;;;6.77;;
2029;SDS011;1020;48.854;8.830;2022-07-25T08:47:33;7.30;;;6.90;;
2029;SDS011;1020;48.854;8.830;2022-07-25T08:50:01;7.13;;;6.43;;
2029;SDS011;1020;48.854;8.830;2022-07-25T08:52:29;7.03;;;6.63;;
2029;SDS011;1020;48.854;8.830;2022-07-25T08:54:59;7.10;;;6.70;;
2029;SDS011;1020;48.854;8.830;2022-07-25T08:57:26;6.67;;;6.20;;
2029;SDS011;1020;48.854;8.830;2022-07-25T08:59:55;7.27;;;6.87;;
2029;SDS011;1020;48.854;8.830;2022-07-25T09:02:24;6.90;;;6.50;;
2029;SDS011;1020;48.854;8.830;2022-07-25T09:04:52;7.63;;;7.13;;
2029;SDS011;1020;48.854;8.830;2022-07-25T09:07:28;6.37;;;6.03;;
2029;SDS011;1020;48.854;8.830;2022-07-25T09:09:55;7.13;;;6.57;;
2029;SDS011;1020;48.854;8.830;2022-07-25T09:12:24;6.53;;;6.17;;
2029;SDS011;1020;48.854;8.830;2022-07-25T09:14:51;7.77;;;7.17;;
2029;SDS011;1020;48.854;8.830;2022-07-25T09:17:17;8.13;;;7.43;;
2029;SDS011;1020;48.854;8.830;2022-07-25T09:19:51;6.60;;;6.10;;
2029;SDS011;1020;48.854;8.830;2022-07-25T09:22:19;5.30;;;5.00;;
2029;SDS011;1020;48.854;8.830;2022-07-25T09:24:45;6.27;;;5.80;;
2029;SDS011;1020;48.854;8.830;2022-07-25T09:27:13;5.63;;;5.30;;
2029;SDS011;1020;48.854;8.830;2022-07-25T09:29:41;5.40;;;5.00;;
2029;SDS011;1020;48.854;8.830;2022-07-25T09:32:12;5.33;;;5.03;;
2029;SDS011;1020;48.854;8.830;2022-07-25T09:34:41;5.50;;;5.17;;
2029;SDS011;1020;48.854;8.830;2022-07-25T09:37:12;5.90;;;5.53;;
2029;SDS011;1020;48.854;8.830;2022-07-25T09:39:40;6.30;;;5.90;;
2029;SDS011;1020;48.854;8.830;2022-07-25T09:42:21;5.90;;;5.60;;
2029;SDS011;1020;48.854;8.830;2022-07-25T09:45:06;5.90;;;5.60;;
2029;SDS011;1020;48.854;8.830;2022-07-25T09:47:36;5.53;;;5.23;;
2029;SDS011;1020;48.854;8.830;2022-07-25T09:50:05;5.27;;;4.97;;
2029;SDS011;1020;48.854;8.830;2022-07-25T09:52:34;5.27;;;4.87;;
2029;SDS011;1020;48.854;8.830;2022-07-25T09:55:02;5.47;;;5.10;;
2029;SDS011;1020;48.854;8.830;2022-07-25T09:57:30;5.57;;;5.27;;
2029;SDS011;1020;48.854;8.830;2022-07-25T09:59:58;5.10;;;4.80;;
2029;SDS011;1020;48.854;8.830;2022-07-25T10:02:35;5.17;;;4.87;;
2029;SDS011;1020;48.854;8.830;2022-07-25T10:05:17;5.43;;;5.03;;
2029;SDS011;1020;48.854;8.830;2022-07-25T10:07:53;5.33;;;5.03;;
2029;SDS011;1020;48.854;8.830;2022-07-25T10:10:25;6.00;;;5.50;;
2029;SDS011;1020;48.854;8.830;2022-07-25T10:13:00;6.37;;;5.97;;
2029;SDS011;1020;48.854;8.830;2022-07-25T10:15:38;5.13;;;4.83;;
2029;SDS011;1020;48.854;8.830;2022-07-25T10:18:12;4.47;;;4.27;;
2029;SDS011;1020;48.854;8.830;2022-07-25T10:20:40;5.00;;;4.70;;
2029;SDS011;1020;48.854;8.830;2022-07-25T10:23:22;5.27;;;4.97;;
2029;SDS011;1020;48.854;8.830;2022-07-25T10:26:00;5.20;;;4.90;;
2029;SDS011;1020;48.854;8.830;2022-07-25T10:28:35;5.47;;;5.17;;
2029;SDS011;1020;48.854;8.830;2022-07-25T10:31:13;5.83;;;5.50;;
2029;SDS011;1020;48.854;8.830;2022-07-25T10:33:41;5.70;;;5.30;;
2029;SDS011;1020;48.854;8.830;2022-07-25T10:36:08;4.70;;;4.40;;
2029;SDS011;1020;48.854;8.830;2022-07-25T10:38:38;4.73;;;4.50;;
2029;SDS011;1020;48.854;8.830;2022-07-25T10:41:05;4.90;;;4.70;;
2029;SDS011;1020;48.854;8.830;2022-07-25T10:43:35;5.10;;;4.80;;
2029;SDS011;1020;48.854;8.830;2022-07-25T10:46:09;5.00;;;4.80;;
2029;SDS011;1020;48.854;8.830;2022-07-25T10:48:37;4.70;;;4.40;;
2029;SDS011;1020;48.854;8.830;2022-07-25T10:51:05;4.47;;;4.27;;
2029;SDS011;1020;48.854;8.830;2022-07-25T10:53:34;6.25;;;5.85;;
2029;SDS011;1020;48.854;8.830;2022-07-25T10:56:04;5.22;;;4.88;;
2029;SDS011;1020;48.854;8.830;2022-07-25T10:58:46;5.60;;;5.30;;
2029;SDS011;1020;48.854;8.830;2022-07-25T11:01:18;5.57;;;5.17;;
2029;SDS011;1020;48.854;8.830;2022-07-25T11:03:46;5.50;;;5.10;;
2029;SDS011;1020;48.854;8.830;2022-07-25T11:06:13;4.73;;;4.43;;
2029;SDS011;1020;48.854;8.830;2022-07-25T11:08:41;4.23;;;4.00;;
2029;SDS011;1020;48.854;8.830;2022-07-25T11:11:11;5.20;;;4.90;;
2029;SDS011;1020;48.854;8.830;2022-07-25T11:13:38;4.63;;;4.33;;
2029;SDS011;1020;48.854;8.830;2022-07-25T11:16:06;4.80;;;4.60;;
2029;SDS011;1020;48.854;8.830;2022-07-25T11:18:36;5.47;;;5.17;;
2029;SDS011;1020;48.854;8.830;2022-07-25T11:21:05;5.20;;;4.90;;
2029;SDS011;1020;48.854;8.830;2022-07-25T11:23:33;5.27;;;4.87;;
2029;SDS011;1020;48.854;8.830;2022-07-25T11:26:04;5.70;;;5.37;;
2029;SDS011;1020;48.854;8.830;2022-07-25T11:28:39;5.17;;;4.87;;
2029;SDS011;1020;48.854;8.830;2022-07-25T11:31:08;5.93;;;5.53;;
2029;SDS011;1020;48.854;8.830;2022-07-25T11:33:36;5.40;;;5.10;;
2029;SDS011;1020;48.854;8.830;2022-07-25T11:36:03;6.33;;;5.93;;
2029;SDS011;1020;48.854;8.830;2022-07-25T11:38:30;5.73;;;5.30;;
2029;SDS011;1020;48.854;8.830;2022-07-25T11:40:58;6.30;;;5.90;;
2029;SDS011;1020;48.854;8.830;2022-07-25T11:43:25;5.27;;;4.97;;
2029;SDS011;1020;48.854;8.830;2022-07-25T11:45:57;6.27;;;5.87;;
2029;SDS011;1020;48.854;8.830;2022-07-25T11:48:29;5.93;;;5.53;;
2029;SDS011;1020;48.854;8.830;2022-07-25T11:51:10;5.67;;;5.27;;
2029;SDS011;1020;48.854;8.830;2022-07-25T11:53:39;6.47;;;5.90;;
2029;SDS011;1020;48.854;8.830;2022-07-25T11:56:11;5.90;;;5.50;;
2029;SDS011;1020;48.854;8.830;2022-07-25T11:58:39;6.37;;;5.97;;
2029;SDS011;1020;48.854;8.830;2022-07-25T12:01:14;5.83;;;5.53;;
2029;SDS011;1020;48.854;8.830;2022-07-25T12:03:41;5.83;;;5.40;;
2029;SDS011;1020;48.854;8.830;2022-07-25T12:06:10;6.23;;;5.83;;
2029;SDS011;1020;48.854;8.830;2022-07-25T12:08:38;5.70;;;5.40;;
2029;SDS011;1020;48.854;8.830;2022-07-25T12:11:15;6.97;;;6.37;;
2029;SDS011;1020;48.854;8.830;2022-07-25T12:13:45;6.47;;;6.07;;
2029;SDS011;1020;48.854;8.830;2022-07-25T12:16:13;6.20;;;5.90;;
2029;SDS011;1020;48.854;8.830;2022-07-25T12:18:41;5.90;;;5.60;;
2029;SDS011;1020;48.854;8.830;2022-07-25T12:21:07;7.87;;;6.70;;
2029;SDS011;1020;48.854;8.830;2022-07-25T12:23:34;6.77;;;6.27;;
2029;SDS011;1020;48.854;8.830;2022-07-25T12:26:03;6.70;;;6.30;;
2029;SDS011;1020;48.854;8.830;2022-07-25T12:28:29;6.60;;;6.20;;
2029;SDS011;1020;48.854;8.830;2022-07-25T12:30:56;7.40;;;6.80;;
2029;SDS011;1020;48.854;8.830;2022-07-25T12:33:24;6.70;;;6.30;;
2029;SDS011;1020;48.854;8.830;2022-07-25T12:35:51;7.00;;;6.57;;
2029;SDS011;1020;48.854;8.830;2022-07-25T12:38:18;7.13;;;6.63;;
2029;SDS011;1020;48.854;8.830;2022-07-25T12:40:44;6.40;;;6.00;;
2029;SDS011;1020;48.854;8.830;2022-07-25T12:43:11;6.97;;;6.53;;
2029;SDS011;1020;48.854;8.830;2022-07-25T12:45:38;6.83;;;6.43;;
2029;SDS011;1020;48.854;8.830;2022-07-25T12:48:06;6.17;;;5.80;;
2029;SDS011;1020;48.854;8.830;2022-07-25T12:50:34;7.30;;;6.70;;
2029;SDS011;1020;48.854;8.830;2022-07-25T12:53:01;8.00;;;6.80;;
2029;SDS011;1020;48.854;8.830;2022-07-25T12:55:28;6.47;;;6.07;;
2029;SDS011;1020;48.854;8.830;2022-07-25T12:57:55;6.80;;;6.33;;
2029;SDS011;1020;48.854;8.830;2022-07-25T13:00:22;6.27;;;5.90;;
2029;SDS011;1020;48.854;8.830;2022-07-25T13:02:49;6.40;;;6.00;;
2029;SDS011;1020;48.854;8.830;2022-07-25T13:05:19;6.67;;;6.27;;
2029;SDS011;1020;48.854;8.830;2022-07-25T13:07:48;6.17;;;5.87;;
2029;SDS011;1020;48.854;8.830;2022-07-25T13:10:15;6.37;;;5.97;;
2029;SDS011;1020;48.854;8.830;2022-07-25T13:12:42;6.70;;;6.13;;
2029;SDS011;1020;48.854;8.830;2022-07-25T13:15:09;8.10;;;7.40;;
2029;SDS011;1020;48.854;8.830;2022-07-25T13:17:36;7.70;;;7.13;;
2029;SDS011;1020;48.854;8.830;2022-07-25T13:20:04;7.40;;;6.80;;
2029;SDS011;1020;48.854;8.830;2022-07-25T13:22:32;6.47;;;5.97;;
2029;SDS011;1020;48.854;8.830;2022-07-25T13:25:00;6.60;;;6.20;;
2029;SDS011;1020;48.854;8.830;2022-07-25T13:27:27;7.03;;;6.63;;
2029;SDS011;1020;48.854;8.830;2022-07-25T13:29:54;7.87;;;6.97;;
2029;SDS011;1020;48.854;8.830;2022-07-25T13:32:22;6.97;;;6.50;;
2029;SDS011;1020;48.854;8.830;2022-07-25T13:34:50;7.20;;;6.73;;
2029;SDS011;1020;48.854;8.830;2022-07-25T13:37:17;7.17;;;6.60;;
2029;SDS011;1020;48.854;8.830;2022-07-25T13:39:43;7.70;;;7.00;;
2029;SDS011;1020;48.854;8.830;2022-07-25T13:42:12;7.63;;;7.03;;
2029;SDS011;1020;48.854;8.830;2022-07-25T13:44:38;7.70;;;7.20;;
2029;SDS011;1020;48.854;8.830;2022-07-25T13:47:05;7.43;;;6.83;;
2029;SDS011;1020;48.854;8.830;2022-07-25T13:49:32;7.70;;;7.20;;
2029;SDS011;1020;48.854;8.830;2022-07-25T13:52:00;7.97;;;7.23;;
2029;SDS011;1020;48.854;8.830;2022-07-25T13:54:27;7.83;;;7.20;;
2029;SDS011;1020;48.854;8.830;2022-07-25T13:56:54;7.10;;;6.70;;
2029;SDS011;1020;48.854;8.830;2022-07-25T13:59:22;7.60;;;7.00;;
2029;SDS011;1020;48.854;8.830;2022-07-25T14:01:49;8.17;;;7.40;;
2029;SDS011;1020;48.854;8.830;2022-07-25T14:04:16;7.43;;;6.93;;
2029;SDS011;1020;48.854;8.830;2022-07-25T14:06:43;9.13;;;7.67;;
2029;SDS011;1020;48.854;8.830;2022-07-25T14:09:09;7.67;;;7.17;;
2029;SDS011;1020;48.854;8.830;2022-07-25T14:11:36;7.83;;;7.33;;
2029;SDS011;1020;48.854;8.830;2022-07-25T14:14:03;7.60;;;6.90;;
2029;SDS011;1020;48.854;8.830;2022-07-25T14:16:31;7.03;;;6.63;;
2029;SDS011;1020;48.854;8.830;2022-07-25T14:18:59;8.03;;;7.43;;
2029;SDS011;1020;48.854;8.830;2022-07-25T14:21:26;7.50;;;7.00;;
2029;SDS011;1020;48.854;8.830;2022-07-25T14:23:52;7.37;;;6.97;;
2029;SDS011;1020;48.854;8.830;2022-07-25T14:26:19;8.37;;;7.87;;
2029;SDS011;1020;48.854;8.830;2022-07-25T14:28:46;7.03;;;6.63;;
2029;SDS011;1020;48.854;8.830;2022-07-25T14:31:13;7.60;;;7.17;;
2029;SDS011;1020;48.854;8.830;2022-07-25T14:33:41;7.80;;;7.10;;
2029;SDS011;1020;48.854;8.830;2022-07-25T14:36:08;7.50;;;6.87;;
2029;SDS011;1020;48.854;8.830;2022-07-25T14:38:35;6.93;;;6.43;;
2029;SDS011;1020;48.854;8.830;2022-07-25T14:41:02;7.37;;;6.80;;
2029;SDS011;1020;48.854;8.830;2022-07-25T14:43:29;7.77;;;7.00;;
2029;SDS011;1020;48.854;8.830;2022-07-25T14:45:55;7.27;;;6.77;;
2029;SDS011;1020;48.854;8.830;2022-07-25T14:48:22;7.50;;;7.00;;
2029;SDS011;1020;48.854;8.830;2022-07-25T14:50:50;7.60;;;6.90;;
2029;SDS011;1020;48.854;8.830;2022-07-25T14:53:17;7.43;;;6.90;;
2029;SDS011;1020;48.854;8.830;2022-07-25T14:55:44;11.70;;;7.10;;
2029;SDS011;1020;48.854;8.830;2022-07-25T14:58:11;11.20;;;7.63;;
2029;SDS011;1020;48.854;8.830;2022-07-25T15:00:39;7.63;;;6.90;;
2029;SDS011;1020;48.854;8.830;2022-07-25T15:03:07;8.23;;;7.37;;
2029;SDS011;1020;48.854;8.830;2022-07-25T15:05:34;8.43;;;7.40;;
2029;SDS011;1020;48.854;8.830;2022-07-25T15:08:03;9.30;;;7.67;;
2029;SDS011;1020;48.854;8.830;2022-07-25T15:10:31;8.43;;;7.73;;